createdAt,value
2023-05-17T00:03:06.291Z,0
2023-05-17T00:19:04.842Z,0
2023-05-17T00:29:43.722Z,0
2023-05-17T00:35:03.378Z,0
2023-05-17T00:45:40.178Z,0
2023-05-17T01:01:37.791Z,0
2023-05-17T01:12:16.562Z,0
2023-05-17T01:17:35.707Z,0
2023-05-17T01:28:13.766Z,0
2023-05-17T01:33:33.149Z,0
2023-05-17T01:38:52.326Z,0
2023-05-17T01:44:11.154Z,0
2023-05-17T01:54:49.668Z,0
2023-05-17T02:00:08.510Z,0
2023-05-17T02:10:45.979Z,0
2023-05-17T02:26:43.532Z,0
2023-05-17T02:37:21.739Z,0
2023-05-17T02:42:40.923Z,0
2023-05-17T02:53:19.906Z,0
2023-05-17T02:58:39.044Z,0
2023-05-17T03:09:17.388Z,0
2023-05-17T03:19:56.107Z,0.0006
2023-05-17T03:25:14.893Z,0.006
2023-05-17T03:35:53.248Z,0.0268
2023-05-17T03:41:12.499Z,0.0311
2023-05-17T03:51:51.292Z,0.0412
2023-05-17T04:02:29.743Z,0.0566
2023-05-17T04:13:08.723Z,0.0732
2023-05-17T04:29:06.430Z,0.1008
2023-05-17T04:39:44.954Z,0.122
2023-05-17T04:45:05.846Z,0.1305
2023-05-17T04:55:43.205Z,0.228
2023-05-17T05:01:02.597Z,0.2023
2023-05-17T05:11:41.117Z,0.2065
2023-05-17T05:16:59.955Z,0.2925
2023-05-17T05:27:38.610Z,0.3119
2023-05-17T05:38:17.435Z,0.4744
2023-05-17T05:43:37.209Z,0.3713
2023-05-17T05:54:15.220Z,0.4584
2023-05-17T06:10:11.752Z,0.2005
2023-05-17T06:20:50.674Z,0.2106
2023-05-17T06:26:09.625Z,0.2142
2023-05-17T06:36:48.463Z,0.207
2023-05-17T06:42:07.794Z,0.2257
2023-05-17T06:52:46.051Z,0.2371
2023-05-17T07:08:43.065Z,0.2408
2023-05-17T07:19:22.151Z,0.2562
2023-05-17T07:24:41.266Z,0.3805
2023-05-17T07:35:20.316Z,0.4814
2023-05-17T07:51:16.740Z,0.6601
2023-05-17T08:01:55.110Z,0.7837
2023-05-17T08:07:14.461Z,0.5212
2023-05-17T08:17:52.818Z,0.6808
2023-05-17T08:33:50.311Z,0.3023
2023-05-17T08:44:28.243Z,0.3086
2023-05-17T08:49:48.289Z,0.3805
2023-05-17T09:00:26.699Z,0.4073
2023-05-17T09:05:46.056Z,0.2477
2023-05-17T09:16:23.541Z,0.2543
2023-05-17T09:27:01.842Z,0.3302
2023-05-17T09:32:21.303Z,0.3308
2023-05-17T09:42:59.601Z,0.4038
2023-05-17T09:48:19.116Z,0.3631
2023-05-17T09:58:57.727Z,0.361
2023-05-17T10:09:36.284Z,0.2905
2023-05-17T10:14:55.218Z,0.2881
2023-05-17T10:25:33.944Z,0.3338
2023-05-17T10:30:53.222Z,0.3034
2023-05-17T10:41:30.783Z,0.3052
2023-05-17T10:52:19.216Z,0.3192
2023-05-17T11:02:46.934Z,0.2873
2023-05-17T11:08:05.863Z,0.3179
2023-05-17T11:18:43.650Z,0.3666
2023-05-17T11:24:02.682Z,0.3772
2023-05-17T11:34:41.213Z,0.4627
2023-05-17T11:45:19.467Z,0.5772
2023-05-17T11:50:48.942Z,0.6376
2023-05-17T12:01:18.385Z,0.7753
2023-05-17T12:06:37.902Z,0.6161
2023-05-17T12:17:15.603Z,0.4046
2023-05-17T12:35:18.431Z,0.3873
2023-05-17T12:38:59.330Z,0.4596
2023-05-17T12:49:37.390Z,0.5078
2023-05-17T13:00:16.159Z,1.7708
2023-05-17T13:05:35.340Z,0.8068
2023-05-17T13:16:15.115Z,0.4691
2023-05-17T13:21:33.034Z,0.4899
2023-05-17T13:32:11.802Z,0.4627
2023-05-17T13:48:10.159Z,0.8988
2023-05-17T13:58:46.706Z,1.111
2023-05-17T14:04:06.201Z,0.3617
2023-05-17T14:14:44.209Z,0.4224
2023-05-17T14:30:41.918Z,0.3648
2023-05-17T14:41:20.174Z,0.3179
2023-05-17T14:46:39.074Z,0.4579
2023-05-17T14:57:18.064Z,1.1966
2023-05-17T15:13:15.205Z,0.6312
2023-05-17T15:23:53.269Z,0.5092
2023-05-17T15:29:11.931Z,0.4077
2023-05-17T15:39:49.904Z,0.4993
2023-05-17T15:45:09.439Z,0.2267
2023-05-17T15:55:48.175Z,0.4862
2023-05-17T16:11:46.119Z,0.6449
2023-05-17T16:22:24.446Z,0.4568
2023-05-17T16:27:43.859Z,0.2296
2023-05-17T16:38:22.189Z,0.2437
2023-05-17T16:54:19.085Z,0.1781
2023-05-17T17:04:57.797Z,0.1428
2023-05-17T17:10:16.946Z,0.1395
2023-05-17T17:20:56.310Z,0.1354
2023-05-17T17:26:15.060Z,0.1252
2023-05-17T17:42:12.838Z,0.1081
2023-05-17T17:47:32.190Z,0.1094
2023-05-17T17:58:11.107Z,0.0981
2023-05-17T18:03:29.862Z,0.09
2023-05-17T18:14:07.924Z,0.0705
2023-05-17T18:30:05.058Z,0.0558
2023-05-17T18:40:42.874Z,0.0461
2023-05-17T18:46:02.201Z,0.0385
2023-05-17T18:56:40.721Z,0.0311
2023-05-17T19:12:38.567Z,0.0084
2023-05-17T19:23:17.340Z,0
2023-05-17T19:28:36.747Z,0
2023-05-17T19:39:14.803Z,0
2023-05-17T19:44:34.122Z,0
2023-05-17T19:55:12.430Z,0
2023-05-17T20:05:51.553Z,0
2023-05-17T20:11:19.376Z,0
2023-05-17T20:21:48.159Z,0
2023-05-17T20:27:07.916Z,0
2023-05-17T20:37:46.770Z,0
2023-05-17T20:53:43.981Z,0
2023-05-17T21:04:22.582Z,0
2023-05-17T21:09:41.975Z,0
2023-05-17T21:20:22.114Z,0
2023-05-17T21:30:57.841Z,0
2023-05-17T21:36:17.023Z,0
2023-05-17T21:46:56.898Z,0
2023-05-17T21:52:15.045Z,0
2023-05-17T22:02:54.014Z,0
2023-05-17T22:13:32.863Z,0
2023-05-17T22:18:51.844Z,0
2023-05-17T22:29:30.216Z,0
2023-05-17T22:45:28.614Z,0
2023-05-17T23:01:25.845Z,0
2023-05-17T23:17:22.420Z,0
2023-05-17T23:28:00.284Z,0
2023-05-17T23:43:57.934Z,0
2023-05-17T23:54:36.624Z,0
2023-05-17T23:59:55.497Z,0
